createdAt,value
2023-03-21T00:00:43.634Z,7.85
2023-03-21T00:03:10.431Z,7.07
2023-03-21T00:05:42.320Z,8.10
2023-03-21T00:08:09.482Z,4.15
2023-03-21T00:10:41.690Z,4.82
2023-03-21T00:13:14.803Z,8.45
2023-03-21T00:16:05.041Z,5.18
2023-03-21T00:18:41.814Z,9.10
2023-03-21T00:26:25.836Z,7.70
2023-03-21T00:28:52.986Z,7.20
2023-03-21T00:31:19.851Z,6.43
2023-03-21T00:33:46.565Z,8.23
2023-03-21T00:36:13.911Z,8.20
2023-03-21T00:38:40.853Z,6.85
2023-03-21T00:41:20.839Z,7.28
2023-03-21T00:43:47.953Z,8.07
2023-03-21T00:46:14.656Z,7.13
2023-03-21T00:48:41.381Z,9.65
2023-03-21T00:51:34.202Z,6.63
2023-03-21T00:54:01.078Z,6.32
2023-03-21T00:56:27.688Z,9.30
2023-03-21T00:58:54.338Z,7.78
2023-03-21T01:01:21.002Z,6.25
2023-03-21T01:03:51.115Z,10.05
2023-03-21T01:06:19.662Z,12.52
2023-03-21T01:08:52.697Z,11.55
2023-03-21T01:11:23.752Z,8.80
2023-03-21T01:14:10.923Z,13.10
2023-03-21T01:16:38.555Z,11.23
2023-03-21T01:19:14.869Z,10.52
2023-03-21T01:21:45.396Z,9.10
2023-03-21T01:24:12.019Z,10.30
2023-03-21T01:26:38.673Z,9.13
2023-03-21T01:29:05.621Z,8.40
2023-03-21T01:31:32.322Z,11.27
2023-03-21T01:33:58.989Z,7.05
2023-03-21T01:36:26.751Z,7.47
2023-03-21T01:38:54.101Z,6.18
2023-03-21T01:41:41.612Z,6.80
2023-03-21T01:44:15.467Z,7.87
2023-03-21T01:47:00.373Z,7.32
2023-03-21T01:49:35.958Z,9.05
2023-03-21T01:52:15.265Z,8.23
2023-03-21T01:54:46.828Z,5.60
2023-03-21T01:59:54.667Z,7.38
2023-03-21T02:02:27.024Z,8.07
2023-03-21T02:04:58.011Z,11.85
2023-03-21T02:07:29.733Z,8.45
2023-03-21T02:09:57.982Z,6.55
2023-03-21T02:12:27.210Z,7.43
2023-03-21T02:14:55.682Z,9.73
2023-03-21T02:17:34.761Z,7.18
2023-03-21T02:20:27.373Z,7.63
2023-03-21T02:23:21.897Z,7.75
2023-03-21T02:25:54.332Z,7.25
2023-03-21T02:28:49.894Z,6.68
2023-03-21T02:32:16.239Z,8.73
2023-03-21T02:35:35.433Z,8.82
2023-03-21T02:38:25.955Z,9.02
2023-03-21T02:41:19.536Z,6.13
2023-03-21T02:44:17.192Z,7.78
2023-03-21T02:46:59.473Z,6.28
2023-03-21T02:49:46.719Z,4.90
2023-03-21T02:52:31.781Z,6.68
2023-03-21T02:55:04.844Z,5.20
2023-03-21T02:57:42.134Z,10.70
2023-03-21T03:00:16.543Z,8.50
2023-03-21T03:02:43.749Z,10.13
2023-03-21T03:05:29.803Z,11.07
2023-03-21T03:08:26.566Z,6.47
2023-03-21T03:11:20.537Z,6.70
2023-03-21T03:17:28.579Z,9.40
2023-03-21T03:20:23.378Z,8.43
2023-03-21T03:22:58.426Z,9.63
2023-03-21T03:25:51.640Z,6.93
2023-03-21T03:28:23.702Z,4.93
2023-03-21T03:31:07.439Z,9.05
2023-03-21T03:33:40.793Z,6.20
2023-03-21T03:36:18.753Z,10.52
2023-03-21T03:38:52.169Z,8.02
2023-03-21T03:41:25.626Z,8.05
2023-03-21T03:43:56.313Z,5.40
2023-03-21T03:46:48.832Z,8.15
2023-03-21T03:49:21.019Z,10.23
2023-03-21T03:51:55.818Z,7.75
2023-03-21T03:54:28.437Z,8.30
2023-03-21T03:56:56.297Z,5.68
2023-03-21T03:59:24.209Z,8.68
2023-03-21T04:01:51.570Z,5.78
2023-03-21T04:04:18.362Z,6.65
2023-03-21T04:06:51.468Z,7.18
2023-03-21T04:09:22.187Z,6.43
2023-03-21T04:11:53.441Z,8.55
2023-03-21T04:14:20.331Z,7.88
2023-03-21T04:16:47.165Z,9.88
2023-03-21T04:19:15.172Z,11.30
2023-03-21T04:21:42.449Z,10.02
2023-03-21T04:24:09.620Z,11.45
2023-03-21T04:26:36.352Z,7.10
2023-03-21T04:29:03.912Z,8.38
2023-03-21T04:31:31.401Z,9.45
2023-03-21T04:33:59.543Z,6.85
2023-03-21T04:36:30.520Z,5.93
2023-03-21T04:39:01.441Z,7.85
2023-03-21T04:41:29.023Z,11.52
2023-03-21T04:43:56.563Z,7.82
2023-03-21T04:46:24.017Z,11.07
2023-03-21T04:48:50.731Z,7.00
2023-03-21T04:51:17.311Z,8.93
2023-03-21T04:53:45.876Z,9.52
2023-03-21T04:56:12.548Z,8.50
2023-03-21T04:58:40.707Z,10.07
2023-03-21T05:01:08.282Z,7.47
2023-03-21T05:03:40.055Z,10.40
2023-03-21T05:06:10.391Z,10.35
2023-03-21T05:08:37.105Z,9.30
2023-03-21T05:11:04.841Z,9.98
2023-03-21T05:13:31.473Z,19.48
2023-03-21T05:15:58.152Z,8.68
2023-03-21T05:18:25.201Z,13.20
2023-03-21T05:20:55.761Z,10.10
2023-03-21T05:23:23.725Z,7.53
2023-03-21T05:25:50.737Z,9.50
2023-03-21T05:28:23.621Z,10.27
2023-03-21T05:30:50.288Z,9.30
2023-03-21T05:33:16.858Z,11.02
2023-03-21T05:35:43.464Z,8.18
2023-03-21T05:38:10.130Z,9.48
2023-03-21T05:40:36.769Z,15.18
2023-03-21T05:43:03.413Z,12.98
2023-03-21T05:45:30.018Z,10.43
2023-03-21T05:47:56.657Z,12.35
2023-03-21T05:50:23.412Z,16.48
2023-03-21T05:52:50.043Z,9.63
2023-03-21T05:55:16.658Z,11.75
2023-03-21T05:57:43.255Z,8.32
2023-03-21T06:00:10.740Z,8.85
2023-03-21T06:02:37.851Z,9.60
2023-03-21T06:05:04.754Z,4.53
2023-03-21T06:07:31.440Z,9.35
2023-03-21T06:09:58.065Z,13.00
2023-03-21T06:12:24.847Z,11.95
2023-03-21T06:14:51.553Z,9.60
2023-03-21T06:17:18.179Z,9.45
2023-03-21T06:19:44.808Z,8.35
2023-03-21T06:22:11.644Z,13.57
2023-03-21T06:24:38.302Z,16.58
2023-03-21T06:27:05.376Z,16.48
2023-03-21T06:29:32.195Z,9.13
2023-03-21T06:31:58.834Z,11.93
2023-03-21T06:34:26.507Z,10.00
2023-03-21T06:36:54.561Z,11.48
2023-03-21T06:39:21.605Z,9.73
2023-03-21T06:41:48.339Z,6.35
2023-03-21T06:44:15.007Z,8.48
2023-03-21T06:46:41.668Z,11.20
2023-03-21T06:49:08.360Z,11.48
2023-03-21T06:51:35.235Z,9.70
2023-03-21T06:54:01.872Z,15.75
2023-03-21T06:56:28.463Z,8.82
2023-03-21T06:58:55.040Z,13.30
2023-03-21T07:01:22.105Z,16.55
2023-03-21T07:03:48.812Z,12.18
2023-03-21T07:06:16.563Z,10.25
2023-03-21T07:08:43.240Z,11.45
2023-03-21T07:11:09.964Z,8.30
2023-03-21T07:13:36.760Z,9.95
2023-03-21T07:16:03.529Z,10.93
2023-03-21T07:18:30.974Z,13.73
2023-03-21T07:20:58.109Z,18.10
2023-03-21T07:23:26.239Z,16.02
2023-03-21T07:25:53.954Z,13.45
2023-03-21T07:28:21.560Z,9.88
2023-03-21T07:30:54.426Z,11.15
2023-03-21T07:33:21.477Z,26.52
2023-03-21T07:35:48.078Z,12.68
2023-03-21T07:38:16.836Z,12.90
2023-03-21T07:40:44.196Z,13.73
2023-03-21T07:43:10.931Z,15.93
2023-03-21T07:45:37.930Z,14.25
2023-03-21T07:48:04.924Z,12.00
2023-03-21T07:50:31.938Z,12.90
2023-03-21T07:52:58.616Z,11.73
2023-03-21T07:55:25.237Z,17.85
2023-03-21T07:57:52.258Z,14.30
2023-03-21T08:00:23.981Z,9.18
2023-03-21T08:02:57.943Z,12.05
2023-03-21T08:05:28.639Z,17.77
2023-03-21T08:07:55.485Z,8.20
2023-03-21T08:10:22.230Z,12.20
2023-03-21T08:12:50.128Z,10.63
2023-03-21T08:15:17.060Z,10.93
2023-03-21T08:17:45.569Z,9.05
2023-03-21T08:20:18.001Z,10.45
2023-03-21T08:22:44.747Z,10.00
2023-03-21T08:25:16.226Z,8.80
2023-03-21T08:27:44.084Z,14.82
2023-03-21T08:30:12.647Z,15.90
2023-03-21T08:32:40.428Z,10.43
2023-03-21T08:35:10.158Z,8.35
2023-03-21T08:37:38.295Z,8.80
2023-03-21T08:40:11.238Z,10.40
2023-03-21T08:42:38.453Z,9.15
2023-03-21T08:45:06.719Z,17.50
2023-03-21T08:47:33.501Z,14.82
2023-03-21T08:50:00.241Z,16.73
2023-03-21T08:52:27.754Z,12.30
2023-03-21T08:54:54.919Z,11.90
2023-03-21T08:57:21.864Z,11.43
2023-03-21T08:59:48.573Z,13.10
2023-03-21T09:02:16.776Z,14.05
2023-03-21T09:04:44.705Z,16.95
2023-03-21T09:07:14.352Z,10.80
2023-03-21T09:09:41.679Z,9.90
2023-03-21T09:12:08.663Z,12.43
2023-03-21T09:14:35.859Z,13.35
2023-03-21T09:17:02.489Z,12.43
2023-03-21T09:19:30.139Z,12.90
2023-03-21T09:21:57.861Z,12.77
2023-03-21T09:24:24.611Z,16.48
2023-03-21T09:26:51.629Z,13.65
2023-03-21T09:29:23.052Z,13.45
2023-03-21T09:31:49.739Z,14.52
2023-03-21T09:34:16.502Z,12.48
2023-03-21T09:36:48.771Z,15.40
2023-03-21T09:39:16.714Z,13.38
2023-03-21T09:42:12.660Z,10.18
2023-03-21T09:45:31.918Z,14.60
2023-03-21T09:47:58.587Z,12.23
2023-03-21T09:50:43.855Z,11.23
2023-03-21T09:53:32.597Z,11.70
2023-03-21T09:56:02.091Z,8.90
2023-03-21T09:58:59.334Z,11.10
2023-03-21T10:01:41.717Z,12.88
2023-03-21T10:04:12.549Z,19.13
2023-03-21T10:06:42.759Z,16.45
2023-03-21T10:09:21.444Z,12.60
2023-03-21T10:11:53.180Z,10.13
2023-03-21T10:14:26.189Z,13.15
2023-03-21T10:16:58.071Z,8.02
2023-03-21T10:19:25.204Z,10.45
2023-03-21T10:22:00.817Z,14.05
2023-03-21T10:24:29.668Z,11.00
2023-03-21T10:26:56.999Z,12.25
2023-03-21T10:29:30.322Z,13.80
2023-03-21T10:31:57.057Z,9.68
2023-03-21T10:34:32.640Z,8.73
2023-03-21T10:37:02.077Z,11.20
2023-03-21T10:39:43.960Z,9.57
2023-03-21T10:42:22.166Z,12.93
2023-03-21T10:44:51.290Z,13.73
2023-03-21T10:47:33.703Z,11.38
2023-03-21T10:50:12.412Z,14.02
2023-03-21T10:52:47.744Z,16.48
2023-03-21T10:55:25.753Z,14.85
2023-03-21T10:58:02.752Z,12.63
2023-03-21T11:00:35.856Z,16.00
2023-03-21T11:03:03.705Z,13.38
2023-03-21T11:05:39.587Z,16.65
2023-03-21T11:08:15.412Z,13.77
2023-03-21T11:10:58.997Z,12.07
2023-03-21T11:13:33.931Z,16.63
2023-03-21T11:16:11.650Z,17.50
2023-03-21T11:18:43.894Z,18.02
2023-03-21T11:21:12.999Z,23.55
2023-03-21T11:23:47.884Z,21.77
2023-03-21T11:26:26.764Z,17.90
2023-03-21T11:28:54.766Z,18.30
2023-03-21T11:31:24.682Z,27.27
2023-03-21T11:33:55.329Z,21.45
2023-03-21T11:36:21.949Z,23.77
2023-03-21T11:39:13.681Z,21.25
2023-03-21T11:41:42.125Z,23.40
2023-03-21T11:44:29.040Z,16.83
2023-03-21T11:46:55.825Z,28.55
2023-03-21T11:49:24.288Z,25.75
2023-03-21T11:52:25.664Z,22.65
2023-03-21T11:55:15.158Z,18.55
2023-03-21T11:58:14.618Z,25.35
2023-03-21T12:01:06.154Z,16.25
2023-03-21T12:03:58.743Z,20.88
2023-03-21T12:06:34.991Z,15.30
2023-03-21T12:09:31.328Z,20.48
2023-03-21T12:12:36.470Z,21.27
2023-03-21T12:15:24.687Z,17.77
2023-03-21T12:18:22.065Z,13.77
2023-03-21T12:20:54.203Z,13.00
2023-03-21T12:23:49.636Z,19.10
2023-03-21T12:26:27.812Z,11.77
2023-03-21T12:29:20.788Z,11.20
2023-03-21T12:32:04.174Z,18.50
2023-03-21T12:34:52.586Z,16.85
2023-03-21T12:37:45.311Z,15.77
2023-03-21T12:40:15.828Z,15.18
2023-03-21T12:43:13.850Z,12.90
2023-03-21T12:45:47.457Z,13.70
2023-03-21T12:48:22.537Z,12.45
2023-03-21T12:50:53.798Z,19.63
2023-03-21T12:53:27.118Z,18.00
2023-03-21T12:55:58.545Z,12.65
2023-03-21T12:58:28.597Z,16.42
2023-03-21T13:00:58.230Z,21.77
2023-03-21T13:06:09.293Z,24.13
2023-03-21T13:09:10.182Z,20.00
2023-03-21T13:11:37.681Z,20.73
2023-03-21T13:14:08.399Z,14.38
2023-03-21T13:16:40.704Z,17.75
2023-03-21T13:19:28.686Z,15.25
2023-03-21T13:22:06.704Z,19.60
2023-03-21T13:24:40.769Z,14.63
2023-03-21T13:27:27.618Z,16.48
2023-03-21T13:30:06.273Z,19.25
2023-03-21T13:32:39.364Z,13.47
2023-03-21T13:35:45.793Z,18.60
2023-03-21T13:38:20.462Z,17.40
2023-03-21T13:41:00.691Z,15.63
2023-03-21T13:43:45.645Z,18.90
2023-03-21T13:46:15.001Z,23.90
2023-03-21T13:48:49.376Z,23.67
2023-03-21T13:51:28.593Z,16.63
2023-03-21T13:54:07.147Z,25.58
2023-03-21T13:56:46.407Z,23.75
2023-03-21T13:59:18.716Z,20.05
2023-03-21T14:02:16.722Z,21.05
2023-03-21T14:05:00.214Z,31.13
2023-03-21T14:07:42.090Z,27.58
2023-03-21T14:10:19.856Z,20.70
2023-03-21T14:12:47.360Z,25.60
2023-03-21T14:15:19.639Z,23.05
2023-03-21T14:17:51.740Z,23.95
2023-03-21T14:20:47.052Z,22.67
2023-03-21T14:23:16.130Z,22.55
2023-03-21T14:25:47.834Z,22.20
2023-03-21T14:28:22.965Z,23.45
2023-03-21T14:31:00.178Z,26.85
2023-03-21T14:33:41.963Z,26.67
2023-03-21T14:36:17.482Z,30.65
2023-03-21T14:38:53.282Z,25.52
2023-03-21T14:41:24.690Z,29.73
2023-03-21T14:44:17.932Z,31.08
2023-03-21T14:46:45.112Z,30.95
2023-03-21T14:49:20.929Z,25.15
2023-03-21T14:51:47.954Z,32.03
2023-03-21T14:54:17.692Z,32.72
2023-03-21T14:59:22.458Z,31.10
2023-03-21T15:01:51.200Z,38.38
2023-03-21T15:04:18.411Z,37.83
2023-03-21T15:06:54.568Z,28.80
2023-03-21T15:09:23.534Z,28.70
2023-03-21T15:11:52.170Z,25.23
2023-03-21T15:14:31.583Z,24.73
2023-03-21T15:17:00.423Z,30.33
2023-03-21T15:19:33.831Z,27.27
2023-03-21T15:22:07.760Z,28.65
2023-03-21T15:24:42.804Z,20.77
2023-03-21T15:27:17.339Z,28.23
2023-03-21T15:29:45.809Z,21.67
2023-03-21T15:32:22.917Z,23.90
2023-03-21T15:34:52.209Z,22.90
2023-03-21T15:37:26.006Z,28.15
2023-03-21T15:39:54.449Z,27.45
2023-03-21T15:42:38.446Z,22.58
2023-03-21T15:45:21.554Z,21.85
2023-03-21T15:48:06.522Z,17.08
2023-03-21T15:50:35.488Z,20.23
2023-03-21T15:53:11.908Z,25.90
2023-03-21T15:55:50.222Z,20.90
2023-03-21T15:58:25.852Z,22.25
2023-03-21T16:00:58.043Z,22.55
2023-03-21T16:03:35.093Z,17.63
2023-03-21T16:06:22.815Z,19.30
2023-03-21T16:09:03.588Z,15.48
2023-03-21T16:11:48.044Z,19.95
2023-03-21T16:14:14.798Z,27.20
2023-03-21T16:16:41.553Z,20.02
2023-03-21T16:19:08.342Z,24.80
2023-03-21T16:21:38.158Z,23.83
2023-03-21T16:24:06.256Z,23.35
2023-03-21T16:26:36.629Z,23.27
2023-03-21T16:29:04.433Z,22.60
2023-03-21T16:31:33.852Z,24.35
2023-03-21T16:34:01.657Z,21.15
2023-03-21T16:36:36.256Z,22.45
2023-03-21T16:39:16.811Z,22.95
2023-03-21T16:41:43.764Z,24.10
2023-03-21T16:44:11.763Z,22.13
2023-03-21T16:46:38.630Z,24.95
2023-03-21T16:49:05.817Z,20.83
2023-03-21T16:51:35.633Z,24.77
2023-03-21T16:54:02.786Z,45.20
2023-03-21T16:56:39.747Z,33.13
2023-03-21T16:59:07.797Z,43.60
2023-03-21T17:01:38.341Z,42.80
2023-03-21T17:04:05.138Z,36.42
2023-03-21T17:06:31.946Z,33.65
2023-03-21T17:08:58.901Z,26.17
2023-03-21T17:11:27.064Z,28.73
2023-03-21T17:13:54.930Z,26.20
2023-03-21T17:16:26.736Z,28.42
2023-03-21T17:18:53.950Z,28.58
2023-03-21T17:21:26.626Z,26.17
2023-03-21T17:23:53.844Z,28.75
2023-03-21T17:26:26.147Z,23.52
2023-03-21T17:28:55.405Z,23.17
2023-03-21T17:31:24.349Z,24.25
2023-03-21T17:33:51.130Z,24.33
2023-03-21T17:36:31.059Z,21.23
2023-03-21T17:38:57.863Z,27.48
2023-03-21T17:41:25.277Z,26.48
2023-03-21T17:43:52.226Z,30.08
2023-03-21T17:46:22.161Z,30.35
2023-03-21T17:48:49.790Z,31.48
2023-03-21T17:51:17.126Z,25.67
2023-03-21T17:53:45.886Z,25.23
2023-03-21T17:56:15.550Z,25.30
2023-03-21T18:01:09.086Z,28.75
2023-03-21T18:03:35.701Z,33.58
2023-03-21T18:06:03.745Z,27.02
2023-03-21T18:08:30.582Z,25.13
2023-03-21T18:10:57.393Z,26.90
2023-03-21T18:13:24.213Z,31.33
2023-03-21T18:15:50.958Z,24.98
2023-03-21T18:18:17.705Z,31.52
2023-03-21T18:20:52.160Z,28.60
2023-03-21T18:23:19.578Z,32.13
2023-03-21T18:25:46.580Z,28.55
2023-03-21T18:28:14.055Z,29.63
2023-03-21T18:31:05.431Z,27.77
2023-03-21T18:33:28.580Z,30.35
2023-03-21T18:35:59.557Z,30.27
2023-03-21T18:38:27.779Z,37.13
2023-03-21T18:40:55.552Z,36.83
2023-03-21T18:46:09.311Z,29.08
2023-03-21T18:48:36.550Z,29.10
2023-03-21T18:51:04.541Z,30.65
2023-03-21T18:54:21.416Z,39.03
2023-03-21T18:57:35.268Z,36.85
2023-03-21T19:00:00.922Z,35.35
2023-03-21T19:02:27.945Z,40.60
2023-03-21T19:04:55.399Z,47.80
2023-03-21T19:07:22.041Z,45.75
2023-03-21T19:10:16.081Z,40.47
2023-03-21T19:12:35.802Z,36.92
2023-03-21T19:15:03.466Z,35.33
2023-03-21T19:20:17.221Z,38.20
2023-03-21T19:22:44.469Z,32.70
2023-03-21T19:25:12.906Z,35.40
2023-03-21T19:27:40.427Z,32.92
2023-03-21T19:30:15.379Z,33.13
2023-03-21T19:32:42.904Z,32.70
2023-03-21T19:35:10.443Z,31.55
2023-03-21T19:37:37.622Z,28.27
2023-03-21T19:40:06.165Z,26.67
2023-03-21T19:42:33.515Z,26.85
2023-03-21T19:45:00.972Z,28.80
2023-03-21T19:47:27.641Z,32.88
2023-03-21T19:50:40.759Z,33.97
2023-03-21T19:52:42.488Z,24.13
2023-03-21T19:55:10.849Z,28.17
2023-03-21T19:57:37.592Z,27.15
2023-03-21T20:00:04.801Z,26.48
2023-03-21T20:02:36.516Z,27.02
2023-03-21T20:05:05.429Z,23.70
2023-03-21T20:07:32.824Z,24.23
2023-03-21T20:09:59.887Z,28.30
2023-03-21T20:12:27.575Z,24.35
2023-03-21T20:15:07.147Z,23.02
2023-03-21T20:17:41.885Z,25.52
2023-03-21T20:20:10.282Z,26.55
2023-03-21T20:23:05.127Z,30.67
2023-03-21T20:25:24.057Z,26.52
2023-03-21T20:28:09.308Z,29.58
2023-03-21T20:30:38.212Z,33.05
2023-03-21T20:33:05.222Z,27.60
2023-03-21T20:36:19.744Z,29.67
2023-03-21T20:38:20.458Z,33.75
2023-03-21T20:40:48.089Z,31.35
2023-03-21T20:46:06.866Z,56.97
2023-03-21T20:48:34.457Z,52.75
2023-03-21T20:51:45.034Z,36.40
2023-03-21T20:53:49.733Z,31.33
2023-03-21T20:56:16.330Z,35.08
2023-03-21T20:59:02.024Z,34.92
2023-03-21T21:01:29.845Z,33.13
2023-03-21T21:03:57.596Z,37.15
2023-03-21T21:06:24.553Z,33.22
2023-03-21T21:08:51.199Z,32.38
2023-03-21T21:12:03.044Z,35.28
2023-03-21T21:14:06.413Z,34.95
2023-03-21T21:16:33.388Z,38.88
2023-03-21T21:19:00.696Z,35.25
2023-03-21T21:21:27.907Z,29.15
2023-03-21T21:23:54.529Z,33.25
2023-03-21T21:26:21.248Z,29.08
2023-03-21T21:28:48.130Z,32.13
2023-03-21T21:31:16.707Z,33.30
2023-03-21T21:33:44.890Z,35.92
2023-03-21T21:36:12.233Z,29.35
2023-03-21T21:38:42.857Z,26.83
2023-03-21T21:41:17.259Z,37.17
2023-03-21T21:43:43.869Z,25.23
2023-03-21T21:46:11.365Z,27.25
2023-03-21T21:48:40.419Z,29.90
2023-03-21T21:51:07.441Z,25.27
2023-03-21T21:53:36.570Z,26.48
2023-03-21T21:56:06.372Z,34.13
2023-03-21T21:58:33.863Z,28.70
2023-03-21T22:01:02.022Z,29.70
2023-03-21T22:03:36.270Z,27.25
2023-03-21T22:06:04.686Z,26.92
2023-03-21T22:08:31.438Z,24.70
2023-03-21T22:11:00.630Z,28.52
2023-03-21T22:13:27.868Z,32.40
2023-03-21T22:15:54.699Z,29.65
2023-03-21T22:18:22.374Z,31.02
2023-03-21T22:20:49.073Z,35.47
2023-03-21T22:23:16.277Z,41.60
2023-03-21T22:25:48.253Z,31.73
2023-03-21T22:28:14.959Z,32.80
2023-03-21T22:30:41.846Z,28.33
2023-03-21T22:33:10.092Z,28.92
2023-03-21T22:35:37.393Z,26.98
2023-03-21T22:38:04.098Z,33.40
2023-03-21T22:40:30.860Z,25.30
2023-03-21T22:42:57.657Z,31.83
2023-03-21T22:45:24.686Z,34.88
2023-03-21T22:47:51.516Z,31.38
2023-03-21T22:50:18.357Z,36.30
2023-03-21T22:52:45.018Z,33.00
2023-03-21T22:55:12.751Z,33.22
2023-03-21T22:57:39.355Z,36.45
2023-03-21T23:00:13.250Z,41.60
2023-03-21T23:02:40.770Z,38.58
2023-03-21T23:05:09.003Z,37.17
2023-03-21T23:07:36.226Z,41.17
2023-03-21T23:10:05.037Z,43.40
2023-03-21T23:12:32.199Z,34.60
2023-03-21T23:14:58.833Z,46.97
2023-03-21T23:17:26.586Z,42.70
2023-03-21T23:19:53.209Z,53.47
2023-03-21T23:22:19.801Z,53.25
2023-03-21T23:24:47.004Z,46.88
2023-03-21T23:27:14.517Z,46.42
2023-03-21T23:29:41.187Z,49.33
2023-03-21T23:32:08.210Z,67.50
2023-03-21T23:34:35.114Z,62.22
2023-03-21T23:37:02.443Z,58.45
2023-03-21T23:39:29.302Z,56.33
2023-03-21T23:41:58.077Z,60.38
2023-03-21T23:44:24.871Z,60.33
2023-03-21T23:46:51.488Z,60.28
2023-03-21T23:49:18.216Z,61.42
2023-03-21T23:51:44.928Z,61.45
2023-03-21T23:54:11.526Z,60.40
2023-03-21T23:56:38.219Z,71.57
2023-03-21T23:59:05.118Z,63.90
